createdAt,value
2022-11-21T00:01:40.782Z,15.93
2022-11-21T00:04:43.280Z,19.00
2022-11-21T00:07:46.159Z,18.98
2022-11-21T00:10:48.899Z,17.92
2022-11-21T00:13:51.352Z,18.85
2022-11-21T00:16:57.372Z,17.65
2022-11-21T00:20:00.110Z,17.70
2022-11-21T00:23:02.952Z,20.90
2022-11-21T00:26:06.758Z,22.60
2022-11-21T00:29:09.576Z,21.63
2022-11-21T00:32:12.027Z,21.55
2022-11-21T00:35:14.457Z,21.00
2022-11-21T00:38:16.953Z,21.30
2022-11-21T00:41:19.465Z,19.65
2022-11-21T00:44:21.900Z,19.70
2022-11-21T00:47:24.387Z,19.75
2022-11-21T00:50:26.784Z,19.53
2022-11-21T00:53:29.881Z,21.00
2022-11-21T00:56:32.316Z,24.10
2022-11-21T00:59:34.792Z,26.17
2022-11-21T01:02:37.213Z,26.88
2022-11-21T01:05:39.741Z,27.53
2022-11-21T01:08:43.679Z,26.95
2022-11-21T01:11:46.122Z,27.27
2022-11-21T01:14:48.797Z,25.80
2022-11-21T01:17:51.196Z,27.02
2022-11-21T01:20:53.592Z,26.83
2022-11-21T01:23:56.356Z,27.05
2022-11-21T01:26:58.897Z,29.15
2022-11-21T01:30:01.371Z,25.45
2022-11-21T01:33:03.772Z,25.42
2022-11-21T01:36:14.004Z,23.53
2022-11-21T01:39:16.540Z,21.80
2022-11-21T01:42:18.961Z,24.42
2022-11-21T01:45:49.286Z,22.80
2022-11-21T01:48:56.091Z,21.05
2022-11-21T01:51:58.457Z,22.83
2022-11-21T01:55:08.155Z,25.15
2022-11-21T01:58:11.078Z,23.55
2022-11-21T02:01:13.766Z,22.33
2022-11-21T02:04:16.986Z,22.92
2022-11-21T02:07:21.455Z,22.10
2022-11-21T02:10:24.178Z,21.65
2022-11-21T02:13:26.850Z,24.13
2022-11-21T02:16:29.577Z,23.65
2022-11-21T02:19:55.832Z,21.33
2022-11-21T02:23:19.458Z,21.27
2022-11-21T02:26:21.937Z,20.65
2022-11-21T02:29:24.484Z,21.98
2022-11-21T02:32:34.217Z,21.60
2022-11-21T02:35:36.805Z,20.73
2022-11-21T02:38:39.455Z,22.07
2022-11-21T02:41:48.962Z,21.75
2022-11-21T02:45:14.170Z,21.17
2022-11-21T02:48:16.653Z,20.52
2022-11-21T02:51:19.079Z,19.05
2022-11-21T02:54:21.554Z,20.20
2022-11-21T02:57:23.968Z,21.92
2022-11-21T03:00:26.445Z,22.25
2022-11-21T03:03:28.902Z,20.55
2022-11-21T03:06:31.310Z,20.02
2022-11-21T03:09:33.776Z,21.23
2022-11-21T03:12:40.095Z,18.30
2022-11-21T03:15:42.570Z,19.17
2022-11-21T03:18:45.139Z,19.38
2022-11-21T03:21:47.551Z,19.23
2022-11-21T03:24:49.906Z,19.50
2022-11-21T03:27:56.006Z,19.63
2022-11-21T03:30:58.482Z,19.45
2022-11-21T03:34:00.995Z,17.52
2022-11-21T03:37:03.874Z,17.52
2022-11-21T03:40:07.141Z,16.40
2022-11-21T03:43:09.695Z,17.58
2022-11-21T03:46:12.070Z,18.27
2022-11-21T03:49:16.673Z,17.73
2022-11-21T03:52:19.140Z,17.45
2022-11-21T03:55:21.913Z,17.67
2022-11-21T03:58:24.311Z,17.35
2022-11-21T04:01:26.754Z,19.85
2022-11-21T04:04:29.580Z,19.48
2022-11-21T04:07:32.336Z,20.65
2022-11-21T04:10:34.842Z,20.57
2022-11-21T04:13:37.801Z,23.38
2022-11-21T04:16:40.265Z,26.08
2022-11-21T04:19:42.703Z,37.95
2022-11-21T04:22:45.257Z,33.65
2022-11-21T04:25:47.701Z,28.33
2022-11-21T04:28:50.193Z,28.25
2022-11-21T04:31:52.588Z,25.52
2022-11-21T04:34:54.989Z,26.88
2022-11-21T04:37:57.402Z,26.30
2022-11-21T04:40:59.917Z,23.17
2022-11-21T04:44:02.313Z,25.45
2022-11-21T04:47:05.723Z,25.48
2022-11-21T04:50:09.837Z,22.75
2022-11-21T04:53:12.335Z,18.42
2022-11-21T04:56:16.642Z,20.43
2022-11-21T04:59:19.452Z,19.63
2022-11-21T05:02:22.405Z,18.40
2022-11-21T05:05:24.818Z,17.25
2022-11-21T05:08:27.313Z,27.70
2022-11-21T05:11:48.330Z,30.67
2022-11-21T05:14:50.741Z,34.55
2022-11-21T05:17:53.222Z,33.25
2022-11-21T05:20:55.731Z,34.80
2022-11-21T05:23:58.259Z,27.35
2022-11-21T05:27:00.659Z,26.13
2022-11-21T05:30:03.265Z,28.08
2022-11-21T05:33:05.789Z,27.00
2022-11-21T05:36:08.229Z,31.20
2022-11-21T05:39:10.649Z,30.45
2022-11-21T05:42:13.018Z,35.27
2022-11-21T05:45:15.517Z,33.30
2022-11-21T05:48:18.403Z,31.83
2022-11-21T05:51:21.879Z,36.22
2022-11-21T05:54:24.236Z,33.78
2022-11-21T05:57:26.653Z,29.30
2022-11-21T06:00:29.372Z,35.78
2022-11-21T06:03:34.481Z,38.72
2022-11-21T06:06:37.375Z,35.55
2022-11-21T06:09:39.842Z,31.92
2022-11-21T06:12:42.233Z,39.03
2022-11-21T06:15:44.654Z,36.33
2022-11-21T06:18:50.026Z,33.95
2022-11-21T06:21:54.096Z,33.28
2022-11-21T06:24:56.575Z,32.50
2022-11-21T06:28:01.888Z,34.23
2022-11-21T06:31:08.589Z,33.65
2022-11-21T06:34:10.942Z,36.05
2022-11-21T06:37:13.381Z,30.75
2022-11-21T06:40:15.919Z,32.92
2022-11-21T06:43:18.367Z,31.80
2022-11-21T06:46:20.857Z,35.17
2022-11-21T06:49:23.350Z,41.13
2022-11-21T06:52:25.848Z,37.67
2022-11-21T06:55:29.854Z,46.63
2022-11-21T06:58:32.434Z,33.43
2022-11-21T07:01:35.003Z,37.40
2022-11-21T07:04:37.575Z,29.35
2022-11-21T07:07:41.077Z,27.10
2022-11-21T07:11:10.184Z,27.10
2022-11-21T07:14:10.795Z,27.03
2022-11-21T07:17:15.915Z,23.77
2022-11-21T07:20:18.623Z,21.35
2022-11-21T07:23:21.049Z,22.60
2022-11-21T07:26:24.459Z,66.53
2022-11-21T07:29:27.368Z,48.63
2022-11-21T07:32:30.094Z,36.42
2022-11-21T07:35:33.306Z,33.90
2022-11-21T07:38:35.895Z,32.17
2022-11-21T07:41:38.668Z,29.30
2022-11-21T07:44:41.161Z,30.03
2022-11-21T07:47:43.650Z,28.90
2022-11-21T07:50:46.231Z,28.30
2022-11-21T07:53:48.698Z,31.90
2022-11-21T07:56:51.204Z,27.88
2022-11-21T07:59:54.257Z,27.40
2022-11-21T08:02:57.103Z,30.33
2022-11-21T08:06:04.078Z,30.17
2022-11-21T08:09:07.822Z,27.30
2022-11-21T08:12:11.553Z,34.83
2022-11-21T08:15:14.112Z,26.40
2022-11-21T08:18:20.957Z,23.40
2022-11-21T08:21:23.331Z,27.10
2022-11-21T08:24:26.077Z,25.98
2022-11-21T08:27:31.508Z,22.67
2022-11-21T08:30:34.361Z,25.93
2022-11-21T08:33:37.061Z,28.40
2022-11-21T08:36:39.626Z,23.45
2022-11-21T08:39:42.324Z,19.02
2022-11-21T08:42:45.057Z,15.95
2022-11-21T08:45:47.526Z,19.40
2022-11-21T08:48:50.552Z,14.15
2022-11-21T08:51:53.438Z,21.05
2022-11-21T08:54:56.161Z,10.98
2022-11-21T08:57:59.602Z,15.95
2022-11-21T09:01:02.360Z,12.67
2022-11-21T09:04:05.853Z,16.02
2022-11-21T09:07:08.437Z,15.63
2022-11-21T09:10:11.939Z,15.77
2022-11-21T09:13:15.093Z,13.68
2022-11-21T09:16:35.844Z,14.43
2022-11-21T09:19:38.569Z,12.25
2022-11-21T09:22:41.894Z,13.05
2022-11-21T09:25:45.010Z,13.05
2022-11-21T09:28:47.603Z,14.75
2022-11-21T09:31:50.225Z,13.10
2022-11-21T09:34:52.651Z,12.70
2022-11-21T09:37:55.142Z,11.77
2022-11-21T09:41:32.576Z,10.63
2022-11-21T09:45:04.119Z,9.32
2022-11-21T09:48:13.004Z,15.10
2022-11-21T09:51:17.563Z,10.90
2022-11-21T09:54:27.053Z,11.63
2022-11-21T09:57:34.786Z,10.30
2022-11-21T10:00:37.605Z,10.15
2022-11-21T10:03:43.814Z,7.67
2022-11-21T10:06:52.656Z,8.90
2022-11-21T10:10:18.395Z,7.82
2022-11-21T10:13:43.410Z,7.22
2022-11-21T10:17:12.229Z,8.15
2022-11-21T10:20:14.875Z,7.43
2022-11-21T10:23:38.475Z,6.28
2022-11-21T10:27:03.082Z,8.90
2022-11-21T10:30:07.502Z,10.20
2022-11-21T10:33:16.198Z,13.18
2022-11-21T10:36:34.731Z,15.57
2022-11-21T10:39:49.333Z,15.90
2022-11-21T10:43:20.992Z,13.48
2022-11-21T10:46:23.792Z,10.32
2022-11-21T10:49:29.822Z,12.43
2022-11-21T10:52:36.459Z,13.30
2022-11-21T10:55:56.676Z,14.02
2022-11-21T10:58:59.810Z,13.00
2022-11-21T11:02:24.309Z,11.15
2022-11-21T11:05:28.759Z,12.95
2022-11-21T11:08:50.551Z,14.03
2022-11-21T11:11:53.104Z,15.70
2022-11-21T11:14:56.577Z,13.77
2022-11-21T11:18:09.023Z,10.88
2022-11-21T11:21:19.418Z,11.80
2022-11-21T11:24:29.458Z,9.10
2022-11-21T11:27:32.192Z,11.35
2022-11-21T11:30:38.234Z,13.13
2022-11-21T11:33:50.473Z,8.15
2022-11-21T11:37:15.271Z,10.25
2022-11-21T11:40:37.534Z,15.37
2022-11-21T11:44:22.575Z,13.02
2022-11-21T11:47:30.905Z,15.00
2022-11-21T11:50:57.995Z,10.23
2022-11-21T11:54:09.345Z,15.82
2022-11-21T11:57:17.730Z,13.07
2022-11-21T12:00:31.171Z,11.23
2022-11-21T12:03:58.095Z,10.38
2022-11-21T12:11:25.383Z,12.10
2022-11-21T12:14:52.463Z,10.90
2022-11-21T12:18:13.913Z,9.55
2022-11-21T12:21:20.709Z,10.23
2022-11-21T12:24:23.309Z,9.98
2022-11-21T12:27:31.845Z,8.82
2022-11-21T12:30:50.255Z,10.67
2022-11-21T12:34:04.494Z,12.20
2022-11-21T12:37:38.752Z,14.40
2022-11-21T12:40:44.462Z,15.65
2022-11-21T12:43:57.396Z,13.52
2022-11-21T12:47:58.365Z,20.17
2022-11-21T12:51:25.506Z,26.38
2022-11-21T12:55:17.328Z,21.48
2022-11-21T12:58:31.245Z,17.42
2022-11-21T13:01:46.588Z,19.02
2022-11-21T13:04:50.160Z,15.97
2022-11-21T13:08:01.451Z,16.02
2022-11-21T13:11:31.169Z,11.70
2022-11-21T13:14:40.148Z,12.23
2022-11-21T13:17:47.456Z,8.75
2022-11-21T13:20:51.508Z,13.93
2022-11-21T13:23:53.973Z,14.23
2022-11-21T13:26:56.956Z,9.57
2022-11-21T13:30:11.455Z,15.40
2022-11-21T13:33:35.641Z,12.38
2022-11-21T13:36:39.256Z,13.57
2022-11-21T13:39:41.722Z,11.02
2022-11-21T13:43:32.031Z,10.27
2022-11-21T13:47:00.900Z,14.18
2022-11-21T13:50:20.600Z,15.73
2022-11-21T13:53:38.359Z,13.60
2022-11-21T13:56:59.080Z,18.52
2022-11-21T14:00:19.904Z,19.00
2022-11-21T14:03:45.378Z,15.80
2022-11-21T14:06:48.415Z,14.90
2022-11-21T14:09:56.190Z,14.70
2022-11-21T14:12:58.902Z,15.40
2022-11-21T14:16:23.953Z,17.70
2022-11-21T14:19:27.584Z,23.55
2022-11-21T14:23:07.498Z,23.10
2022-11-21T14:26:20.183Z,23.27
2022-11-21T14:29:32.584Z,47.15
2022-11-21T14:32:35.090Z,31.30
2022-11-21T14:35:39.950Z,28.13
2022-11-21T14:38:47.551Z,41.45
2022-11-21T14:41:55.863Z,42.00
2022-11-21T14:45:16.578Z,39.42
2022-11-21T14:48:29.356Z,37.42
2022-11-21T14:51:31.937Z,40.83
2022-11-21T14:54:59.941Z,40.60
2022-11-21T14:58:06.180Z,35.33
2022-11-21T15:01:25.902Z,38.60
2022-11-21T15:04:31.993Z,58.00
2022-11-21T15:07:45.548Z,85.32
2022-11-21T15:10:48.151Z,105.18
2022-11-21T15:17:20.597Z,82.40
2022-11-21T15:20:23.523Z,53.78
2022-11-21T15:23:38.467Z,40.55
2022-11-21T15:26:41.227Z,37.33
2022-11-21T15:29:43.653Z,48.30
2022-11-21T15:33:01.820Z,56.63
2022-11-21T15:36:13.988Z,44.13
2022-11-21T15:39:21.986Z,48.35
2022-11-21T15:42:42.517Z,27.65
2022-11-21T15:45:46.984Z,36.47
2022-11-21T15:48:53.834Z,36.72
2022-11-21T15:52:11.530Z,41.22
2022-11-21T15:55:20.080Z,39.00
2022-11-21T15:58:22.774Z,40.42
2022-11-21T16:01:27.580Z,36.10
2022-11-21T16:04:30.176Z,37.92
2022-11-21T16:07:32.690Z,37.88
2022-11-21T16:10:36.247Z,38.67
2022-11-21T16:13:38.706Z,41.83
2022-11-21T16:16:43.517Z,75.00
2022-11-21T16:19:46.142Z,51.72
2022-11-21T16:22:50.006Z,55.40
2022-11-21T16:25:55.484Z,43.92
2022-11-21T16:28:58.983Z,38.60
2022-11-21T16:32:01.524Z,42.47
2022-11-21T16:35:04.733Z,36.13
2022-11-21T16:38:11.349Z,31.17
2022-11-21T16:41:14.068Z,38.20
2022-11-21T16:44:16.712Z,41.17
2022-11-21T16:47:19.122Z,41.57
2022-11-21T16:50:22.111Z,43.63
2022-11-21T16:53:24.759Z,45.65
2022-11-21T16:56:27.644Z,42.15
2022-11-21T16:59:31.535Z,49.13
2022-11-21T17:02:34.391Z,45.73
2022-11-21T17:05:36.874Z,48.75
2022-11-21T17:08:39.591Z,63.67
2022-11-21T17:11:42.955Z,138.93
2022-11-21T17:14:47.519Z,64.80
2022-11-21T17:17:50.107Z,81.47
2022-11-21T17:20:53.033Z,101.90
2022-11-21T17:23:55.927Z,80.20
2022-11-21T17:27:01.101Z,85.22
2022-11-21T17:30:04.248Z,75.90
2022-11-21T17:33:06.942Z,58.20
2022-11-21T17:36:14.037Z,83.00
2022-11-21T17:39:18.137Z,82.25
2022-11-21T17:42:21.061Z,372.15
2022-11-21T17:45:23.870Z,85.60
2022-11-21T17:48:26.741Z,85.00
2022-11-21T17:51:35.025Z,97.72
2022-11-21T17:54:37.578Z,91.32
2022-11-21T17:57:40.171Z,90.53
2022-11-21T18:00:42.603Z,67.43
2022-11-21T18:03:47.064Z,69.00
2022-11-21T18:06:49.897Z,68.15
2022-11-21T18:09:53.068Z,57.05
2022-11-21T18:12:55.824Z,87.82
2022-11-21T18:16:04.229Z,146.30
2022-11-21T18:19:08.533Z,121.67
2022-11-21T18:22:11.242Z,101.95
2022-11-21T18:25:13.888Z,85.45
2022-11-21T18:28:16.350Z,76.75
2022-11-21T18:31:20.869Z,76.30
2022-11-21T18:34:23.368Z,61.03
2022-11-21T18:37:26.078Z,67.05
2022-11-21T18:40:28.748Z,66.03
2022-11-21T18:43:31.595Z,57.00
2022-11-21T18:46:36.432Z,47.47
2022-11-21T18:49:39.156Z,69.77
2022-11-21T18:52:46.443Z,83.57
2022-11-21T18:55:49.595Z,58.38
2022-11-21T18:58:58.177Z,53.83
2022-11-21T19:02:01.690Z,81.75
2022-11-21T19:05:04.708Z,102.80
2022-11-21T19:08:07.388Z,126.38
2022-11-21T19:11:11.972Z,155.52
2022-11-21T19:14:14.757Z,151.38
2022-11-21T19:17:18.311Z,182.15
2022-11-21T19:20:21.119Z,153.73
2022-11-21T19:23:23.782Z,134.40
2022-11-21T19:26:26.421Z,92.95
2022-11-21T19:29:30.317Z,111.70
2022-11-21T19:32:34.219Z,82.20
2022-11-21T19:35:37.739Z,77.90
2022-11-21T19:38:40.513Z,60.45
2022-11-21T19:41:43.631Z,69.50
2022-11-21T19:44:46.272Z,113.90
2022-11-21T19:47:50.153Z,116.05
2022-11-21T19:50:59.263Z,97.13
2022-11-21T19:54:04.111Z,93.47
2022-11-21T19:57:12.433Z,83.47
2022-11-21T20:00:17.260Z,72.38
2022-11-21T20:03:20.571Z,69.63
2022-11-21T20:06:32.312Z,80.77
2022-11-21T20:09:35.031Z,77.47
2022-11-21T20:12:37.851Z,64.57
2022-11-21T20:15:40.453Z,64.22
2022-11-21T20:18:43.020Z,63.25
2022-11-21T20:21:46.276Z,59.27
2022-11-21T20:24:51.698Z,58.65
2022-11-21T20:27:54.696Z,59.83
2022-11-21T20:31:08.370Z,41.65
2022-11-21T20:34:13.162Z,45.38
2022-11-21T20:37:15.923Z,39.70
2022-11-21T20:40:18.530Z,37.08
2022-11-21T20:43:21.259Z,39.10
2022-11-21T20:46:24.298Z,39.63
2022-11-21T20:49:26.973Z,47.80
2022-11-21T20:55:53.106Z,40.42
2022-11-21T20:58:56.868Z,44.20
2022-11-21T21:01:59.443Z,54.45
2022-11-21T21:05:02.803Z,51.72
2022-11-21T21:08:05.396Z,50.37
2022-11-21T21:11:36.702Z,66.68
2022-11-21T21:14:38.763Z,70.07
2022-11-21T21:17:41.205Z,86.65
2022-11-21T21:21:09.446Z,78.78
2022-11-21T21:24:07.807Z,80.33
2022-11-21T21:27:10.540Z,86.32
2022-11-21T21:30:13.920Z,78.53
2022-11-21T21:33:16.647Z,86.82
2022-11-21T21:36:21.338Z,76.15
2022-11-21T21:39:24.464Z,51.73
2022-11-21T21:42:27.071Z,58.10
2022-11-21T21:45:29.481Z,64.45
2022-11-21T21:48:32.026Z,70.32
2022-11-21T21:51:36.762Z,60.72
2022-11-21T21:54:39.508Z,56.20
2022-11-21T21:57:48.290Z,59.92
2022-11-21T22:00:54.561Z,61.33
2022-11-21T22:03:59.100Z,77.10
2022-11-21T22:07:02.780Z,70.10
2022-11-21T22:10:06.261Z,68.03
2022-11-21T22:13:08.926Z,58.90
2022-11-21T22:16:12.677Z,57.58
2022-11-21T22:19:15.734Z,62.70
2022-11-21T22:22:18.286Z,63.05
2022-11-21T22:25:20.793Z,58.50
2022-11-21T22:28:24.044Z,56.63
2022-11-21T22:31:26.402Z,54.60
2022-11-21T22:34:29.311Z,56.22
2022-11-21T22:37:31.894Z,42.78
2022-11-21T22:40:34.471Z,40.60
2022-11-21T22:43:36.914Z,40.20
2022-11-21T22:46:39.298Z,41.53
2022-11-21T22:49:41.926Z,44.47
2022-11-21T22:52:44.475Z,42.75
2022-11-21T22:56:02.102Z,41.10
2022-11-21T22:59:04.741Z,41.28
2022-11-21T23:02:07.205Z,39.95
2022-11-21T23:05:09.770Z,43.35
2022-11-21T23:08:12.159Z,40.95
2022-11-21T23:11:19.361Z,45.23
2022-11-21T23:14:21.760Z,45.65
2022-11-21T23:17:24.165Z,48.25
2022-11-21T23:20:26.643Z,46.55
2022-11-21T23:23:29.245Z,44.20
2022-11-21T23:26:31.695Z,48.17
2022-11-21T23:29:34.113Z,40.28
2022-11-21T23:32:36.523Z,39.42
2022-11-21T23:35:38.908Z,37.92
2022-11-21T23:38:41.735Z,37.08
2022-11-21T23:41:44.125Z,37.03
2022-11-21T23:44:47.681Z,36.30
2022-11-21T23:47:50.081Z,34.67
2022-11-21T23:50:52.548Z,34.08
2022-11-21T23:53:55.088Z,36.10
2022-11-21T23:56:57.501Z,33.10
2022-11-21T23:59:59.956Z,30.45
